Airfield :
LOGIN :

Register | Disclaimer

   EN    FR    IT 

 










Legend :    VFR   Marginal VFR   IFR   Intensive IFR   Very Intensive IFR
Visi :
Ceiling :
>= 8 km
>= 3000ft
5 to 8 km
1000 to 3000 ft
1500m to 5 km
500 to 1000 ft
800 to 1500m
200 to 500 ft
< 800m
< 200 ft
Symbols :   Thunderstorms  Fog  Heavy snow  Heavy precipitations  Wind > 20 kt
SIGMETs :     Misc.  Thunderstorms  Icing  Turbulence  Mountain Waves  Volcanic Ashes






- Airport Elevation : 2026 ft
- IATA code : TOJ


LETO - Madrid Torrejon

CURRENT METAR :
  • 232230Z 23004KT 200V270 CAVOK 23/03 Q1013 NOSIG

EXPIRED METARs :
  • 232200Z 21005KT CAVOK 23/02 Q1013 NOSIG
  • 232130Z 25007KT 230V290 CAVOK 25/01 Q1013 NOSIG
  • 232100Z 24012KT 210V270 CAVOK 26/M01 Q1013 NOSIG
  • 232030Z 24009KT CAVOK 26/M00 Q1012 NOSIG
  • 232000Z 24009KT 210V270 CAVOK 27/02 Q1012 NOSIG
  • 231930Z 25008KT 210V270 CAVOK 28/01 Q1012 NOSIG

TAF TAF LETO
Valid from the 23 at 18:00 until the 24 at 18:00 UTC


231700Z 2318/2418 25012KT CAVOK TX32/2416Z TN13/2405Z
PROB30
TEMPO 2318/2319 24015G25KT
BECMG 2321/2323 VRB04KT
BECMG 2411/2413 24010KT
BECMG 2416/2418 33010KT



MET'MAP, your aeronautical weather chart ! - Copyright ORBIFLY December 2007 - Disclaimer

ORBIFLY MET'MAP TEAM :

Programming & Development : Alexandra Zaïnal
Concept & original design : Baudouin d'Aumeries
Assistance for programming : Marc-Olivier Méhu
Technical & hardware support : Manuel Goepfert

Contact : metmap@orbifly.com




SOURCES & CREDITS :

   NOAA